createdAt,value
2023-02-24T00:01:26.284Z,6.00
2023-02-24T00:03:58.207Z,5.96
2023-02-24T00:06:36.895Z,5.95
2023-02-24T00:09:11.961Z,5.96
2023-02-24T00:11:40.741Z,5.93
2023-02-24T00:14:09.929Z,5.87
2023-02-24T00:16:39.843Z,5.81
2023-02-24T00:19:07.632Z,5.74
2023-02-24T00:21:37.647Z,5.70
2023-02-24T00:24:05.300Z,5.62
2023-02-24T00:26:37.168Z,5.59
2023-02-24T00:29:09.540Z,5.62
2023-02-24T00:31:39.736Z,5.56
2023-02-24T00:34:07.123Z,5.51
2023-02-24T00:36:35.000Z,5.44
2023-02-24T00:39:09.118Z,5.45
2023-02-24T00:41:37.839Z,5.39
2023-02-24T00:44:07.362Z,5.43
2023-02-24T00:46:36.021Z,5.42
2023-02-24T00:49:09.708Z,5.43
2023-02-24T00:51:37.669Z,5.50
2023-02-24T00:54:05.327Z,5.49
2023-02-24T00:56:35.023Z,5.43
2023-02-24T00:59:02.663Z,5.42
2023-02-24T01:01:32.816Z,5.41
2023-02-24T01:04:02.191Z,5.41
2023-02-24T01:06:29.496Z,5.41
2023-02-24T01:08:57.955Z,5.42
2023-02-24T01:11:45.121Z,5.41
2023-02-24T01:14:13.962Z,5.38
2023-02-24T01:16:41.801Z,5.38
2023-02-24T01:19:09.368Z,5.43
2023-02-24T01:21:36.859Z,5.44
2023-02-24T01:24:04.191Z,5.46
2023-02-24T01:26:37.544Z,5.44
2023-02-24T01:29:04.961Z,5.45
2023-02-24T01:31:32.076Z,5.45
2023-02-24T01:33:58.857Z,5.44
2023-02-24T01:36:26.378Z,5.41
2023-02-24T01:38:53.373Z,5.39
2023-02-24T01:41:27.981Z,5.40
2023-02-24T01:44:02.501Z,5.31
2023-02-24T01:46:31.405Z,5.32
2023-02-24T01:49:03.619Z,5.33
2023-02-24T01:51:34.523Z,5.27
2023-02-24T01:54:02.165Z,5.28
2023-02-24T01:56:33.707Z,5.27
2023-02-24T01:59:01.195Z,5.28
2023-02-24T02:01:29.039Z,5.31
2023-02-24T02:04:00.600Z,5.28
2023-02-24T02:06:27.714Z,5.28
2023-02-24T02:08:55.509Z,5.31
2023-02-24T02:11:32.865Z,5.12
2023-02-24T02:14:00.607Z,5.14
2023-02-24T02:16:32.887Z,5.10
2023-02-24T02:19:18.871Z,5.05
2023-02-24T02:21:55.490Z,4.98
2023-02-24T02:24:37.381Z,4.98
2023-02-24T02:27:32.043Z,4.93
2023-02-24T02:30:03.530Z,4.95
2023-02-24T02:32:39.867Z,4.95
2023-02-24T02:35:19.161Z,4.90
2023-02-24T02:37:56.409Z,4.93
2023-02-24T02:40:32.146Z,4.90
2023-02-24T02:43:07.261Z,4.93
2023-02-24T02:45:47.624Z,4.86
2023-02-24T02:48:25.709Z,4.84
2023-02-24T02:51:06.926Z,4.82
2023-02-24T02:53:37.535Z,4.82
2023-02-24T02:56:11.495Z,4.79
2023-02-24T02:58:46.496Z,4.68
2023-02-24T03:01:16.428Z,4.74
2023-02-24T03:03:46.833Z,4.78
2023-02-24T03:06:16.446Z,4.79
2023-02-24T03:08:48.318Z,4.80
2023-02-24T03:11:17.117Z,4.82
2023-02-24T03:13:45.580Z,4.82
2023-02-24T03:16:13.829Z,4.85
2023-02-24T03:18:46.430Z,4.84
2023-02-24T03:21:20.034Z,4.89
2023-02-24T03:23:50.200Z,4.85
2023-02-24T03:26:24.474Z,4.82
2023-02-24T03:29:01.155Z,4.76
2023-02-24T03:31:33.519Z,4.79
2023-02-24T03:34:08.342Z,4.82
2023-02-24T03:36:35.457Z,4.85
2023-02-24T03:39:04.608Z,4.82
2023-02-24T03:41:39.026Z,4.77
2023-02-24T03:44:07.886Z,4.82
2023-02-24T03:46:36.056Z,4.73
2023-02-24T03:49:16.586Z,4.72
2023-02-24T03:51:48.817Z,4.58
2023-02-24T03:54:31.168Z,4.49
2023-02-24T03:57:05.684Z,4.48
2023-02-24T03:59:32.694Z,4.47
2023-02-24T04:02:03.896Z,4.47
2023-02-24T04:04:38.514Z,4.45
2023-02-24T04:07:17.953Z,4.46
2023-02-24T04:09:57.177Z,4.42
2023-02-24T04:12:37.255Z,4.50
2023-02-24T04:15:14.187Z,4.56
2023-02-24T04:17:46.959Z,4.50
2023-02-24T04:20:16.636Z,4.53
2023-02-24T04:22:48.877Z,4.52
2023-02-24T04:25:18.048Z,4.52
2023-02-24T04:27:47.256Z,4.54
2023-02-24T04:30:14.631Z,4.57
2023-02-24T04:32:42.941Z,4.53
2023-02-24T04:35:12.925Z,4.52
2023-02-24T04:37:46.057Z,4.51
2023-02-24T04:40:16.983Z,4.46
2023-02-24T04:42:49.015Z,4.47
2023-02-24T04:45:17.457Z,4.47
2023-02-24T04:48:06.131Z,4.52
2023-02-24T04:50:34.699Z,4.47
2023-02-24T04:53:06.948Z,4.46
2023-02-24T04:55:39.280Z,4.42
2023-02-24T04:58:07.774Z,4.42
2023-02-24T05:00:35.861Z,4.39
2023-02-24T05:03:06.612Z,4.41
2023-02-24T05:05:33.683Z,4.43
2023-02-24T05:08:09.202Z,4.49
2023-02-24T05:11:05.118Z,4.43
2023-02-24T05:13:32.625Z,4.44
2023-02-24T05:16:04.210Z,4.46
2023-02-24T05:18:37.261Z,4.44
2023-02-24T05:21:24.838Z,4.46
2023-02-24T05:23:52.827Z,4.45
2023-02-24T05:26:21.211Z,4.48
2023-02-24T05:28:52.434Z,4.42
2023-02-24T05:31:21.529Z,4.40
2023-02-24T05:33:54.639Z,4.38
2023-02-24T05:36:22.290Z,4.43
2023-02-24T05:38:56.554Z,4.40
2023-02-24T05:41:24.570Z,4.39
2023-02-24T05:43:55.091Z,4.32
2023-02-24T05:46:29.675Z,4.36
2023-02-24T05:48:57.991Z,4.28
2023-02-24T05:51:26.171Z,4.30
2023-02-24T05:53:56.858Z,4.35
2023-02-24T05:56:27.526Z,4.32
2023-02-24T05:59:02.230Z,4.36
2023-02-24T06:01:36.077Z,4.41
2023-02-24T06:04:06.933Z,4.38
2023-02-24T06:06:35.081Z,4.38
2023-02-24T06:09:07.664Z,4.39
2023-02-24T06:11:38.494Z,4.42
2023-02-24T06:14:08.135Z,4.42
2023-02-24T06:16:35.662Z,4.39
2023-02-24T06:19:02.962Z,4.38
2023-02-24T06:21:30.036Z,4.40
2023-02-24T06:23:58.034Z,4.43
2023-02-24T06:26:29.791Z,4.41
2023-02-24T06:28:58.821Z,4.46
2023-02-24T06:31:26.835Z,4.46
2023-02-24T06:33:53.825Z,4.39
2023-02-24T06:36:21.160Z,4.37
2023-02-24T06:38:49.632Z,4.37
2023-02-24T06:41:16.671Z,4.31
2023-02-24T06:43:44.854Z,4.31
2023-02-24T06:46:13.648Z,4.28
2023-02-24T06:48:40.692Z,4.24
2023-02-24T06:51:14.278Z,4.27
2023-02-24T06:53:44.823Z,4.26
2023-02-24T06:56:18.514Z,4.31
2023-02-24T06:58:52.501Z,4.32
2023-02-24T07:01:22.111Z,4.30
2023-02-24T07:04:19.654Z,4.28
2023-02-24T07:06:52.502Z,4.28
2023-02-24T07:09:23.393Z,4.32
2023-02-24T07:12:15.136Z,4.41
2023-02-24T07:14:47.551Z,4.42
2023-02-24T07:17:14.812Z,4.49
2023-02-24T07:19:42.333Z,4.46
2023-02-24T07:22:32.789Z,4.53
2023-02-24T07:25:04.385Z,4.60
2023-02-24T07:27:31.802Z,4.49
2023-02-24T07:30:16.194Z,4.57
2023-02-24T07:35:36.201Z,4.61
2023-02-24T07:38:23.089Z,4.55
2023-02-24T07:41:06.826Z,4.58
2023-02-24T07:45:47.684Z,4.66
2023-02-24T07:47:07.754Z,4.65
2023-02-24T07:49:35.914Z,4.57
2023-02-24T07:52:11.868Z,4.61
2023-02-24T07:54:39.584Z,4.63
2023-02-24T07:57:15.065Z,4.73
2023-02-24T07:59:45.242Z,4.73
2023-02-24T08:02:14.865Z,4.74
2023-02-24T08:04:51.391Z,4.84
2023-02-24T08:07:25.017Z,4.89
2023-02-24T08:10:16.665Z,4.79
2023-02-24T08:12:46.877Z,4.80
2023-02-24T08:15:28.259Z,4.79
2023-02-24T08:18:06.902Z,4.85
2023-02-24T08:20:51.584Z,4.83
2023-02-24T08:23:46.445Z,4.82
2023-02-24T08:29:06.645Z,4.93
2023-02-24T08:31:48.147Z,4.87
2023-02-24T08:34:20.818Z,4.89
2023-02-24T08:36:56.179Z,4.91
2023-02-24T08:39:32.209Z,4.86
2023-02-24T08:41:59.666Z,4.88
2023-02-24T08:44:30.708Z,4.96
2023-02-24T08:47:01.340Z,4.97
2023-02-24T08:49:40.374Z,5.02
2023-02-24T08:55:10.826Z,5.01
2023-02-24T08:57:38.068Z,5.02
2023-02-24T09:00:07.281Z,5.08
2023-02-24T09:02:45.883Z,5.07
2023-02-24T09:05:17.017Z,5.13
2023-02-24T09:07:54.873Z,5.19
2023-02-24T09:10:24.867Z,5.21
2023-02-24T09:12:55.906Z,5.25
2023-02-24T09:15:25.633Z,5.40
2023-02-24T09:18:01.478Z,5.47
2023-02-24T09:20:47.653Z,5.45
2023-02-24T09:23:22.802Z,5.44
2023-02-24T09:25:50.168Z,5.40
2023-02-24T09:28:24.595Z,5.41
2023-02-24T09:30:57.185Z,5.49
2023-02-24T09:33:28.616Z,5.47
2023-02-24T09:36:13.168Z,5.45
2023-02-24T09:38:59.308Z,5.50
2023-02-24T09:41:55.302Z,5.61
2023-02-24T09:44:28.534Z,5.58
2023-02-24T09:47:00.257Z,5.57
2023-02-24T09:49:40.061Z,5.60
2023-02-24T09:52:16.671Z,5.41
2023-02-24T09:55:04.802Z,5.41
2023-02-24T09:57:39.889Z,5.26
2023-02-24T10:00:26.216Z,5.29
2023-02-24T10:03:03.914Z,5.29
2023-02-24T10:05:49.549Z,5.33
2023-02-24T10:08:29.042Z,5.50
2023-02-24T10:11:07.292Z,5.28
2023-02-24T10:13:38.692Z,5.34
2023-02-24T10:16:11.485Z,5.37
2023-02-24T10:19:15.484Z,5.33
2023-02-24T10:22:02.583Z,5.24
2023-02-24T10:24:35.544Z,5.24
2023-02-24T10:27:17.644Z,5.26
2023-02-24T10:29:44.868Z,5.28
2023-02-24T10:32:31.689Z,5.34
2023-02-24T10:35:00.140Z,5.36
2023-02-24T10:37:29.584Z,5.34
2023-02-24T10:40:09.987Z,5.24
2023-02-24T10:42:38.478Z,5.31
2023-02-24T10:45:22.021Z,5.13
2023-02-24T10:47:57.092Z,5.16
2023-02-24T10:50:32.602Z,5.11
2023-02-24T10:53:07.249Z,4.99
2023-02-24T10:55:43.310Z,5.04
2023-02-24T10:58:28.684Z,4.96
2023-02-24T11:01:15.751Z,4.96
2023-02-24T11:04:01.607Z,4.86
2023-02-24T11:06:41.246Z,4.89
2023-02-24T11:09:20.251Z,5.03
2023-02-24T11:12:11.062Z,4.87
2023-02-24T11:15:07.294Z,4.72
2023-02-24T11:17:36.949Z,4.75
2023-02-24T11:20:15.552Z,4.64
2023-02-24T11:22:43.587Z,4.73
2023-02-24T11:25:12.278Z,4.66
2023-02-24T11:27:43.218Z,4.67
2023-02-24T11:30:52.089Z,4.69
2023-02-24T11:33:23.525Z,4.66
2023-02-24T11:35:54.847Z,4.72
2023-02-24T11:38:40.624Z,4.64
2023-02-24T11:41:16.559Z,4.58
2023-02-24T11:43:59.167Z,4.53
2023-02-24T11:46:37.226Z,4.55
2023-02-24T11:49:36.629Z,4.56
2023-02-24T11:52:04.719Z,4.63
2023-02-24T11:54:41.543Z,4.63
2023-02-24T11:57:18.918Z,4.59
2023-02-24T11:59:54.780Z,4.53
2023-02-24T12:02:42.451Z,4.59
2023-02-24T12:05:15.274Z,4.56
2023-02-24T12:07:52.244Z,4.50
2023-02-24T12:10:33.745Z,4.35
2023-02-24T12:13:16.585Z,4.36
2023-02-24T12:15:52.748Z,4.40
2023-02-24T12:18:25.449Z,4.59
2023-02-24T12:20:58.010Z,4.54
2023-02-24T12:23:34.013Z,4.57
2023-02-24T12:26:20.337Z,4.54
2023-02-24T12:29:07.276Z,4.47
2023-02-24T12:31:53.604Z,4.50
2023-02-24T12:34:29.841Z,4.48
2023-02-24T12:37:00.529Z,4.55
2023-02-24T12:39:33.676Z,4.59
2023-02-24T12:42:33.062Z,4.53
2023-02-24T12:45:00.235Z,4.57
2023-02-24T12:47:50.487Z,4.68
2023-02-24T12:50:27.534Z,4.54
2023-02-24T12:53:18.803Z,4.48
2023-02-24T12:55:55.757Z,4.50
2023-02-24T12:58:32.374Z,4.50
2023-02-24T13:01:15.845Z,4.60
2023-02-24T13:03:59.682Z,4.53
2023-02-24T13:06:41.207Z,4.58
2023-02-24T13:09:29.572Z,4.70
2023-02-24T13:11:59.558Z,4.58
2023-02-24T13:14:28.886Z,4.54
2023-02-24T13:17:10.976Z,4.55
2023-02-24T13:19:41.666Z,4.60
2023-02-24T13:22:12.486Z,4.70
2023-02-24T13:24:41.040Z,4.74
2023-02-24T13:27:14.795Z,4.78
2023-02-24T13:29:43.312Z,4.76
2023-02-24T13:32:40.143Z,4.78
2023-02-24T13:35:13.898Z,4.80
2023-02-24T13:37:45.143Z,4.87
2023-02-24T13:40:16.494Z,4.88
2023-02-24T13:43:00.043Z,4.96
2023-02-24T13:45:35.797Z,4.86
2023-02-24T13:48:18.933Z,4.90
2023-02-24T13:51:10.170Z,4.84
2023-02-24T13:53:57.657Z,4.85
2023-02-24T13:56:34.323Z,4.84
2023-02-24T13:59:33.015Z,4.89
2023-02-24T14:02:15.701Z,4.90
2023-02-24T14:04:51.435Z,4.80
2023-02-24T14:07:27.915Z,4.88
2023-02-24T14:10:19.204Z,4.92
2023-02-24T14:12:47.933Z,4.96
2023-02-24T14:15:27.140Z,4.92
2023-02-24T14:17:57.821Z,5.02
2023-02-24T14:20:25.235Z,5.07
2023-02-24T14:22:59.236Z,5.14
2023-02-24T14:25:35.896Z,5.15
2023-02-24T14:28:03.432Z,5.12
2023-02-24T14:30:40.299Z,5.16
2023-02-24T14:33:18.982Z,5.22
2023-02-24T14:35:47.228Z,5.27
2023-02-24T14:38:37.380Z,5.35
2023-02-24T14:41:07.104Z,5.39
2023-02-24T14:43:40.880Z,5.43
2023-02-24T14:46:09.669Z,5.46
2023-02-24T14:48:36.951Z,5.52
2023-02-24T14:51:24.519Z,5.52
2023-02-24T14:53:59.802Z,5.55
2023-02-24T14:56:32.657Z,5.58
2023-02-24T14:59:07.471Z,5.58
2023-02-24T15:01:39.803Z,5.72
2023-02-24T15:04:31.864Z,5.75
2023-02-24T15:07:03.651Z,5.93
2023-02-24T15:09:42.518Z,5.93
2023-02-24T15:12:44.396Z,5.79
2023-02-24T15:15:44.762Z,5.77
2023-02-24T15:18:26.006Z,5.87
2023-02-24T15:21:05.889Z,5.95
2023-02-24T15:23:36.464Z,5.95
2023-02-24T15:26:08.728Z,5.92
2023-02-24T15:28:37.629Z,5.99
2023-02-24T15:31:16.862Z,6.02
2023-02-24T15:33:52.653Z,6.02
2023-02-24T15:36:28.647Z,6.01
2023-02-24T15:39:01.445Z,6.10
2023-02-24T15:41:44.532Z,6.08
2023-02-24T15:44:29.882Z,6.10
2023-02-24T15:46:59.198Z,6.10
2023-02-24T15:49:26.143Z,6.07
2023-02-24T15:51:56.004Z,6.13
2023-02-24T15:54:36.674Z,6.04
2023-02-24T15:57:05.417Z,6.11
2023-02-24T15:59:32.627Z,6.14
2023-02-24T16:02:01.180Z,6.09
2023-02-24T16:04:29.732Z,6.02
2023-02-24T16:06:58.206Z,6.03
2023-02-24T16:09:33.747Z,5.94
2023-02-24T16:12:05.234Z,5.91
2023-02-24T16:14:38.848Z,5.90
2023-02-24T16:17:28.591Z,5.83
2023-02-24T16:20:00.471Z,5.91
2023-02-24T16:22:31.417Z,5.99
2023-02-24T16:24:59.296Z,5.99
2023-02-24T16:27:29.477Z,5.91
2023-02-24T16:29:57.305Z,5.87
2023-02-24T16:32:25.916Z,5.87
2023-02-24T16:34:53.682Z,5.94
2023-02-24T16:37:24.441Z,5.92
2023-02-24T16:39:51.397Z,5.99
2023-02-24T16:42:22.315Z,5.98
2023-02-24T16:44:49.878Z,6.00
2023-02-24T16:47:24.072Z,5.99
2023-02-24T16:49:58.059Z,6.03
2023-02-24T16:52:25.177Z,6.02
2023-02-24T16:54:52.748Z,5.97
2023-02-24T16:57:25.657Z,6.09
2023-02-24T16:59:52.792Z,6.04
2023-02-24T17:02:23.482Z,5.93
2023-02-24T17:04:50.607Z,5.95
2023-02-24T17:07:20.780Z,5.94
2023-02-24T17:09:48.256Z,5.93
2023-02-24T17:12:54.289Z,5.90
2023-02-24T17:15:23.692Z,5.84
2023-02-24T17:17:51.243Z,5.91
2023-02-24T17:20:30.279Z,5.85
2023-02-24T17:23:00.588Z,5.82
2023-02-24T17:25:29.882Z,5.85
2023-02-24T17:27:58.628Z,5.88
2023-02-24T17:32:08.233Z,5.93
2023-02-24T17:34:15.089Z,5.93
2023-02-24T17:36:42.852Z,6.00
2023-02-24T17:39:09.821Z,5.93
2023-02-24T17:41:37.646Z,5.98
2023-02-24T17:44:04.622Z,5.92
2023-02-24T17:46:31.758Z,5.93
2023-02-24T17:49:00.276Z,5.84
2023-02-24T17:51:31.187Z,5.86
2023-02-24T17:53:59.410Z,5.84
2023-02-24T17:56:27.029Z,5.82
2023-02-24T17:58:59.095Z,5.84
2023-02-24T18:01:28.882Z,5.85
2023-02-24T18:03:57.916Z,5.79
2023-02-24T18:06:25.504Z,5.82
2023-02-24T18:08:52.672Z,5.90
2023-02-24T18:11:30.057Z,5.88
2023-02-24T18:14:00.681Z,5.93
2023-02-24T18:16:28.236Z,5.95
2023-02-24T18:18:55.264Z,5.99
2023-02-24T18:21:23.235Z,5.96
2023-02-24T18:23:53.633Z,5.92
2023-02-24T18:26:25.573Z,5.92
2023-02-24T18:28:54.140Z,5.79
2023-02-24T18:31:24.435Z,5.49
2023-02-24T18:33:56.251Z,5.36
2023-02-24T18:36:24.416Z,5.31
2023-02-24T18:38:51.496Z,5.25
2023-02-24T18:41:21.508Z,5.23
2023-02-24T18:43:54.267Z,5.18
2023-02-24T18:46:22.265Z,5.23
2023-02-24T18:48:50.363Z,5.19
2023-02-24T18:51:22.046Z,5.25
2023-02-24T18:53:52.452Z,5.23
2023-02-24T18:56:25.046Z,5.13
2023-02-24T18:58:56.008Z,5.19
2023-02-24T19:01:28.636Z,5.22
2023-02-24T19:03:56.129Z,5.24
2023-02-24T19:06:26.721Z,5.18
2023-02-24T19:09:10.351Z,5.17
2023-02-24T19:11:39.514Z,5.17
2023-02-24T19:14:06.973Z,5.18
2023-02-24T19:16:34.739Z,5.23
2023-02-24T19:19:02.028Z,5.23
2023-02-24T19:21:31.355Z,5.21
2023-02-24T19:24:01.705Z,5.30
2023-02-24T19:26:29.752Z,5.30
2023-02-24T19:28:58.510Z,5.30
2023-02-24T19:31:28.656Z,5.29
2023-02-24T19:34:01.259Z,5.31
2023-02-24T19:36:29.957Z,5.22
2023-02-24T19:38:57.900Z,5.21
2023-02-24T19:41:25.584Z,5.23
2023-02-24T19:43:52.651Z,5.20
2023-02-24T19:46:20.010Z,5.13
2023-02-24T19:48:48.384Z,5.07
2023-02-24T19:51:21.295Z,4.92
2023-02-24T19:53:52.607Z,4.80
2023-02-24T19:56:24.723Z,4.75
2023-02-24T19:58:56.567Z,4.70
2023-02-24T20:01:25.402Z,4.65
2023-02-24T20:03:58.092Z,4.62
2023-02-24T20:06:37.366Z,4.63
2023-02-24T20:09:15.353Z,4.67
2023-02-24T20:11:45.208Z,4.74
2023-02-24T20:14:13.173Z,4.75
2023-02-24T20:16:42.080Z,4.75
2023-02-24T20:19:12.154Z,4.70
2023-02-24T20:21:40.456Z,4.65
2023-02-24T20:24:12.614Z,4.65
2023-02-24T20:26:43.105Z,4.68
2023-02-24T20:29:11.245Z,4.64
2023-02-24T20:31:40.135Z,4.62
2023-02-24T20:34:09.396Z,4.69
2023-02-24T20:36:37.408Z,4.64
2023-02-24T20:39:08.071Z,4.66
2023-02-24T20:41:35.339Z,4.61
2023-02-24T20:44:03.923Z,4.64
2023-02-24T20:46:32.816Z,4.60
2023-02-24T20:49:06.769Z,4.60
2023-02-24T20:51:37.072Z,4.66
2023-02-24T20:54:05.385Z,4.68
2023-02-24T20:56:35.706Z,4.67
2023-02-24T20:59:07.220Z,4.67
2023-02-24T21:01:36.397Z,4.53
2023-02-24T21:04:04.099Z,4.63
2023-02-24T21:06:32.100Z,4.54
2023-02-24T21:08:59.202Z,4.52
2023-02-24T21:11:26.872Z,4.57
2023-02-24T21:13:53.915Z,4.50
2023-02-24T21:16:21.951Z,4.57
2023-02-24T21:18:51.396Z,4.58
2023-02-24T21:21:19.820Z,4.53
2023-02-24T21:23:47.687Z,4.49
2023-02-24T21:26:15.056Z,4.47
2023-02-24T21:28:42.511Z,4.48
2023-02-24T21:31:15.860Z,4.44
2023-02-24T21:33:42.810Z,4.41
2023-02-24T21:36:16.367Z,4.42
2023-02-24T21:38:43.436Z,4.46
2023-02-24T21:41:14.841Z,4.46
2023-02-24T21:43:44.164Z,4.38
2023-02-24T21:46:13.446Z,4.36
2023-02-24T21:48:41.759Z,4.38
2023-02-24T21:51:11.940Z,4.39
2023-02-24T21:53:43.577Z,4.43
2023-02-24T21:56:18.008Z,4.44
2023-02-24T21:58:50.245Z,4.43
2023-02-24T22:01:20.804Z,4.48
2023-02-24T22:03:47.541Z,4.52
2023-02-24T22:06:17.303Z,4.46
2023-02-24T22:08:45.654Z,4.48
2023-02-24T22:11:15.585Z,4.48
2023-02-24T22:13:44.026Z,4.50
2023-02-24T22:16:18.127Z,4.45
2023-02-24T22:18:45.907Z,4.50
2023-02-24T22:21:17.266Z,4.45
2023-02-24T22:23:46.411Z,4.42
2023-02-24T22:26:14.761Z,4.40
2023-02-24T22:28:43.409Z,4.36
2023-02-24T22:31:14.750Z,4.39
2023-02-24T22:33:43.450Z,4.37
2023-02-24T22:36:16.388Z,4.28
2023-02-24T22:38:45.603Z,4.29
2023-02-24T22:41:16.685Z,4.27
2023-02-24T22:43:44.329Z,4.35
2023-02-24T22:46:14.194Z,4.33
2023-02-24T22:48:41.067Z,4.34
2023-02-24T22:51:10.515Z,4.28
2023-02-24T22:53:40.205Z,4.25
2023-02-24T22:56:08.597Z,4.29
2023-02-24T22:58:37.576Z,4.30
2023-02-24T23:01:21.944Z,4.31
2023-02-24T23:03:49.877Z,4.44
2023-02-24T23:06:20.026Z,4.35
2023-02-24T23:08:49.770Z,4.37
2023-02-24T23:11:19.909Z,4.29
2023-02-24T23:13:49.626Z,4.37
2023-02-24T23:16:20.170Z,4.44
2023-02-24T23:18:50.955Z,4.34
2023-02-24T23:21:22.268Z,4.37
2023-02-24T23:23:53.389Z,4.38
2023-02-24T23:26:20.907Z,4.31
2023-02-24T23:28:48.375Z,4.44
2023-02-24T23:31:20.516Z,4.42
2023-02-24T23:33:50.393Z,4.41
2023-02-24T23:36:18.561Z,4.41
2023-02-24T23:38:45.747Z,4.39
2023-02-24T23:41:13.425Z,4.44
2023-02-24T23:43:40.858Z,4.41
2023-02-24T23:46:11.104Z,4.42
2023-02-24T23:48:38.511Z,4.41
2023-02-24T23:51:08.322Z,4.47
2023-02-24T23:53:43.766Z,4.42
2023-02-24T23:56:15.197Z,4.43
2023-02-24T23:58:42.371Z,4.47
